createdAt,value
2018-07-17T00:01:46.412Z,25.51
2018-07-17T00:04:21.644Z,25.42
2018-07-17T00:06:50.446Z,25.36
2018-07-17T00:09:22.659Z,25.33
2018-07-17T00:11:51.330Z,25.30
2018-07-17T00:14:20.514Z,25.24
2018-07-17T00:16:55.318Z,25.19
2018-07-17T00:19:23.955Z,25.16
2018-07-17T00:21:52.609Z,25.13
2018-07-17T00:24:21.322Z,25.10
2018-07-17T00:26:50.285Z,25.08
2018-07-17T00:29:18.962Z,25.07
2018-07-17T00:31:47.881Z,25.04
2018-07-17T00:34:16.640Z,24.99
2018-07-17T00:36:51.796Z,24.94
2018-07-17T00:39:20.557Z,24.90
2018-07-17T00:41:49.314Z,24.87
2018-07-17T00:44:18.236Z,24.78
2018-07-17T00:46:47.255Z,24.72
2018-07-17T00:49:15.954Z,24.66
2018-07-17T00:51:44.602Z,24.57
2018-07-17T00:54:14.197Z,24.54
2018-07-17T00:56:43.310Z,24.47
2018-07-17T00:59:11.981Z,24.37
2018-07-17T01:01:45.739Z,24.31
2018-07-17T01:04:19.669Z,24.24
2018-07-17T01:06:53.702Z,24.20
2018-07-17T01:09:28.441Z,24.16
2018-07-17T01:12:03.562Z,24.12
2018-07-17T01:14:42.198Z,24.09
2018-07-17T01:17:11.069Z,24.06
2018-07-17T01:19:45.614Z,24.04
2018-07-17T01:22:14.761Z,23.97
2018-07-17T01:25:46.752Z,23.90
2018-07-17T01:28:15.542Z,23.81
2018-07-17T01:30:45.750Z,23.76
2018-07-17T01:33:14.450Z,23.73
2018-07-17T01:35:43.035Z,23.73
2018-07-17T01:38:12.164Z,23.74
2018-07-17T01:40:40.984Z,23.72
2018-07-17T01:43:09.658Z,23.72
2018-07-17T01:45:38.313Z,23.71
2018-07-17T01:48:07.320Z,23.67
2018-07-17T01:50:36.104Z,23.66
2018-07-17T01:53:04.844Z,23.68
2018-07-17T01:55:33.459Z,23.69
2018-07-17T01:58:04.198Z,23.70
2018-07-17T02:00:32.821Z,23.69
2018-07-17T02:03:05.493Z,23.69
2018-07-17T02:05:34.210Z,23.69
2018-07-17T02:08:03.656Z,23.65
2018-07-17T02:10:32.327Z,23.62
2018-07-17T02:13:01.454Z,23.53
2018-07-17T02:15:30.123Z,23.49
2018-07-17T02:17:58.995Z,23.43
2018-07-17T02:20:33.900Z,23.40
2018-07-17T02:23:04.282Z,23.36
2018-07-17T02:25:33.038Z,23.37
2018-07-17T02:28:02.364Z,23.33
2018-07-17T02:30:34.125Z,23.20
2018-07-17T02:33:03.296Z,23.06
2018-07-17T02:35:32.094Z,22.68
2018-07-17T02:38:00.824Z,22.66
2018-07-17T02:40:29.983Z,22.69
2018-07-17T02:42:59.283Z,22.66
2018-07-17T02:48:07.624Z,22.66
2018-07-17T02:50:41.320Z,22.66
2018-07-17T02:53:10.191Z,22.58
2018-07-17T02:55:39.062Z,22.53
2018-07-17T02:58:07.644Z,22.43
2018-07-17T03:00:38.874Z,22.33
2018-07-17T03:03:07.565Z,22.36
2018-07-17T03:05:36.381Z,22.39
2018-07-17T03:08:05.510Z,22.37
2018-07-17T03:10:35.385Z,22.34
2018-07-17T03:13:04.224Z,22.22
2018-07-17T03:15:39.573Z,22.15
2018-07-17T03:18:08.562Z,22.06
2018-07-17T03:20:37.220Z,21.99
2018-07-17T03:23:05.856Z,21.94
2018-07-17T03:25:34.526Z,21.85
2018-07-17T03:28:05.080Z,21.78
2018-07-17T03:30:34.508Z,21.77
2018-07-17T03:33:03.696Z,21.73
2018-07-17T03:35:32.433Z,21.66
2018-07-17T03:38:01.327Z,21.62
2018-07-17T03:40:36.626Z,21.57
2018-07-17T03:43:05.730Z,21.54
2018-07-17T03:45:34.399Z,21.54
2018-07-17T03:48:04.089Z,21.50
2018-07-17T03:50:33.095Z,21.47
2018-07-17T03:53:01.783Z,21.45
2018-07-17T03:55:31.734Z,21.48
2018-07-17T04:00:28.151Z,21.33
2018-07-17T04:02:57.506Z,21.21
2018-07-17T04:05:26.272Z,21.20
2018-07-17T04:07:54.982Z,21.09
2018-07-17T04:10:23.646Z,21.06
2018-07-17T04:12:54.132Z,21.05
2018-07-17T04:15:22.914Z,21.08
2018-07-17T04:17:51.966Z,21.02
2018-07-17T04:20:20.762Z,21.00
2018-07-17T04:22:50.608Z,21.02
2018-07-17T04:25:20.164Z,21.08
2018-07-17T04:27:54.618Z,21.17
2018-07-17T04:30:23.420Z,21.06
2018-07-17T04:32:54.062Z,21.04
2018-07-17T04:35:22.756Z,21.12
2018-07-17T04:37:53.604Z,21.15
2018-07-17T04:40:22.624Z,21.17
2018-07-17T04:42:51.447Z,21.15
2018-07-17T04:45:20.151Z,21.13
2018-07-17T04:47:48.968Z,21.12
2018-07-17T04:50:18.486Z,21.18
2018-07-17T04:52:47.153Z,21.22
2018-07-17T04:55:21.908Z,21.34
2018-07-17T04:57:51.026Z,21.48
2018-07-17T05:00:26.478Z,21.74
2018-07-17T05:02:55.145Z,21.91
2018-07-17T05:05:23.911Z,21.96
2018-07-17T05:07:52.819Z,21.98
2018-07-17T05:10:26.667Z,21.97
2018-07-17T05:12:55.415Z,21.96
2018-07-17T05:17:57.103Z,22.04
2018-07-17T05:20:25.736Z,22.00
2018-07-17T05:22:54.362Z,21.88
2018-07-17T05:25:23.240Z,21.89
2018-07-17T05:27:51.843Z,21.93
2018-07-17T05:30:20.674Z,22.06
2018-07-17T05:32:49.313Z,22.14
2018-07-17T05:35:17.990Z,22.20
2018-07-17T05:37:46.546Z,22.23
2018-07-17T05:40:15.758Z,22.10
2018-07-17T05:42:44.416Z,22.19
2018-07-17T05:45:12.951Z,22.32
2018-07-17T05:47:45.745Z,22.36
2018-07-17T05:50:14.275Z,22.41
2018-07-17T05:52:42.830Z,22.11
2018-07-17T05:55:11.864Z,22.26
2018-07-17T05:57:40.556Z,22.41
2018-07-17T06:00:09.869Z,22.58
2018-07-17T06:02:38.467Z,22.59
2018-07-17T06:05:07.605Z,22.67
2018-07-17T06:07:36.742Z,22.73
2018-07-17T06:10:06.892Z,22.82
2018-07-17T06:12:35.537Z,22.90
2018-07-17T06:15:04.668Z,22.96
2018-07-17T06:17:33.231Z,22.64
2018-07-17T06:20:02.518Z,22.75
2018-07-17T06:22:31.103Z,22.90
2018-07-17T06:25:00.119Z,23.05
2018-07-17T06:27:28.741Z,23.08
2018-07-17T06:29:57.327Z,23.12
2018-07-17T06:32:26.287Z,23.05
2018-07-17T06:34:55.043Z,22.98
2018-07-17T06:37:24.278Z,22.87
2018-07-17T06:39:52.889Z,22.95
2018-07-17T06:42:21.829Z,23.09
2018-07-17T06:44:50.498Z,23.24
2018-07-17T06:47:19.103Z,23.37
2018-07-17T06:49:47.812Z,23.54
2018-07-17T06:52:16.934Z,23.71
2018-07-17T06:54:45.545Z,23.89
2018-07-17T06:57:15.515Z,24.06
2018-07-17T06:59:44.125Z,24.13
2018-07-17T07:02:12.945Z,24.17
2018-07-17T07:04:41.473Z,24.08
2018-07-17T07:07:10.330Z,24.04
2018-07-17T07:09:39.232Z,24.05
2018-07-17T07:12:09.065Z,24.06
2018-07-17T07:14:37.991Z,24.10
2018-07-17T07:17:07.136Z,24.16
2018-07-17T07:19:36.406Z,24.25
2018-07-17T07:22:05.708Z,24.35
2018-07-17T07:24:34.264Z,24.31
2018-07-17T07:27:03.104Z,24.30
2018-07-17T07:29:31.748Z,24.31
2018-07-17T07:32:00.279Z,24.37
2018-07-17T07:34:28.834Z,24.36
2018-07-17T07:36:58.574Z,24.13
2018-07-17T07:39:27.153Z,24.19
2018-07-17T07:41:55.686Z,24.36
2018-07-17T07:44:25.559Z,24.48
2018-07-17T07:46:54.125Z,24.57
2018-07-17T07:49:23.497Z,24.65
2018-07-17T07:51:52.102Z,24.76
2018-07-17T07:54:21.112Z,24.82
2018-07-17T07:56:57.442Z,24.89
2018-07-17T07:59:33.431Z,24.97
2018-07-17T08:02:02.893Z,24.94
2018-07-17T08:04:31.533Z,25.03
2018-07-17T08:07:00.591Z,25.14
2018-07-17T08:09:29.138Z,25.25
2018-07-17T08:11:57.806Z,25.33
2018-07-17T08:14:26.306Z,25.26
2018-07-17T08:16:55.013Z,25.32
2018-07-17T08:19:23.604Z,25.41
2018-07-17T08:21:52.641Z,25.55
2018-07-17T08:24:21.471Z,25.67
2018-07-17T08:26:50.736Z,25.61
2018-07-17T08:29:19.329Z,25.46
2018-07-17T08:31:48.055Z,25.47
2018-07-17T08:34:17.319Z,25.58
2018-07-17T08:36:47.494Z,25.62
2018-07-17T08:39:16.395Z,25.77
2018-07-17T08:41:45.437Z,25.93
2018-07-17T08:44:14.485Z,26.02
2018-07-17T08:46:43.891Z,26.11
2018-07-17T08:49:12.635Z,26.23
2018-07-17T08:51:41.524Z,26.36
2018-07-17T08:54:10.791Z,26.44
2018-07-17T08:56:40.016Z,26.54
2018-07-17T08:59:08.920Z,26.60
2018-07-17T09:01:37.659Z,26.66
2018-07-17T09:04:07.575Z,26.73
2018-07-17T09:06:36.159Z,26.64
2018-07-17T09:09:05.729Z,26.74
2018-07-17T09:11:34.390Z,26.83
2018-07-17T09:14:04.790Z,26.89
2018-07-17T09:16:33.561Z,26.99
2018-07-17T09:19:02.110Z,27.12
2018-07-17T09:21:30.943Z,27.26
2018-07-17T09:23:59.543Z,27.32
2018-07-17T09:26:41.684Z,27.36
2018-07-17T09:29:22.319Z,27.36
2018-07-17T09:31:51.181Z,27.51
2018-07-17T09:34:19.865Z,27.62
2018-07-17T09:36:49.657Z,27.72
2018-07-17T09:39:18.237Z,27.91
2018-07-17T09:41:46.823Z,28.11
2018-07-17T09:44:15.689Z,28.06
2018-07-17T09:46:44.493Z,28.30
2018-07-17T09:49:13.071Z,28.20
2018-07-17T09:51:42.972Z,28.32
2018-07-17T09:54:11.558Z,28.49
2018-07-17T09:56:40.738Z,28.69
2018-07-17T09:59:09.599Z,28.89
2018-07-17T10:01:43.243Z,28.75
2018-07-17T10:04:11.929Z,28.74
2018-07-17T10:06:40.481Z,28.76
2018-07-17T10:09:09.058Z,29.00
2018-07-17T10:11:38.066Z,29.33
2018-07-17T10:14:06.828Z,29.55
2018-07-17T10:16:35.522Z,29.81
2018-07-17T10:19:04.817Z,29.90
2018-07-17T10:21:33.391Z,30.10
2018-07-17T10:24:03.914Z,29.73
2018-07-17T10:26:32.937Z,29.88
2018-07-17T10:29:02.279Z,30.17
2018-07-17T10:31:30.864Z,30.44
2018-07-17T10:33:59.465Z,30.50
2018-07-17T10:36:28.132Z,30.60
2018-07-17T10:38:57.040Z,30.95
2018-07-17T10:41:25.721Z,31.30
2018-07-17T10:43:54.431Z,31.75
2018-07-17T10:46:23.287Z,32.06
2018-07-17T10:48:51.891Z,32.15
2018-07-17T10:51:20.904Z,32.31
2018-07-17T10:53:49.940Z,32.23
2018-07-17T10:56:18.806Z,32.59
2018-07-17T10:58:47.388Z,32.99
2018-07-17T11:01:16.229Z,33.47
2018-07-17T11:03:44.887Z,33.69
2018-07-17T11:06:14.237Z,33.60
2018-07-17T11:08:46.677Z,33.51
2018-07-17T11:11:15.426Z,33.05
2018-07-17T11:13:44.201Z,31.95
2018-07-17T11:16:13.748Z,31.36
2018-07-17T11:18:42.405Z,31.04
2018-07-17T11:21:11.798Z,30.92
2018-07-17T11:23:40.801Z,30.87
2018-07-17T11:26:09.463Z,30.56
2018-07-17T11:28:38.056Z,30.17
2018-07-17T11:31:07.447Z,29.80
2018-07-17T11:33:36.463Z,29.19
2018-07-17T11:36:06.217Z,28.53
2018-07-17T11:38:36.236Z,27.91
2018-07-17T11:41:07.063Z,27.88
2018-07-17T11:43:35.782Z,27.86
2018-07-17T11:46:05.772Z,27.80
2018-07-17T11:48:34.974Z,27.81
2018-07-17T11:51:04.060Z,27.76
2018-07-17T11:53:33.925Z,27.57
2018-07-17T11:56:03.091Z,27.56
2018-07-17T11:58:31.905Z,27.59
2018-07-17T12:01:01.564Z,27.53
2018-07-17T12:03:30.493Z,27.56
2018-07-17T12:05:59.522Z,27.38
2018-07-17T12:08:29.567Z,27.27
2018-07-17T12:10:58.199Z,27.10
2018-07-17T12:13:26.851Z,27.09
2018-07-17T12:15:55.795Z,27.16
2018-07-17T12:18:24.796Z,26.99
2018-07-17T12:20:53.774Z,27.06
2018-07-17T12:23:23.515Z,27.14
2018-07-17T12:25:52.057Z,27.00
2018-07-17T12:28:21.812Z,26.83
2018-07-17T12:30:53.286Z,26.70
2018-07-17T12:33:24.841Z,26.90
2018-07-17T12:35:55.388Z,27.03
2018-07-17T12:38:24.520Z,27.15
2018-07-17T12:40:53.217Z,27.20
2018-07-17T12:43:23.830Z,27.14
2018-07-17T12:46:06.403Z,27.10
2018-07-17T12:48:36.528Z,27.19
2018-07-17T12:51:05.847Z,27.21
2018-07-17T12:53:39.192Z,27.24
2018-07-17T12:56:11.264Z,27.43
2018-07-17T12:58:40.210Z,27.59
2018-07-17T13:01:10.073Z,27.69
2018-07-17T13:03:38.834Z,27.72
2018-07-17T13:06:07.599Z,27.77
2018-07-17T13:08:36.517Z,27.78
2018-07-17T13:11:05.627Z,27.78
2018-07-17T13:13:34.505Z,27.59
2018-07-17T13:16:05.059Z,27.65
2018-07-17T13:18:35.311Z,27.65
2018-07-17T13:21:04.196Z,27.61
2018-07-17T13:23:33.542Z,27.75
2018-07-17T13:26:03.267Z,27.83
2018-07-17T13:28:32.130Z,27.90
2018-07-17T13:31:01.095Z,28.01
2018-07-17T13:33:30.313Z,28.14
2018-07-17T13:36:03.752Z,28.23
2018-07-17T13:38:33.048Z,28.34
2018-07-17T13:41:02.266Z,28.55
2018-07-17T13:43:31.156Z,28.69
2018-07-17T13:46:00.208Z,28.70
2018-07-17T13:48:28.944Z,28.86
2018-07-17T13:50:58.677Z,29.02
2018-07-17T13:53:27.756Z,29.11
2018-07-17T13:55:56.555Z,29.10
2018-07-17T13:58:25.550Z,29.27
2018-07-17T14:00:55.309Z,29.45
2018-07-17T14:03:24.093Z,29.62
2018-07-17T14:05:52.685Z,29.77
2018-07-17T14:08:21.752Z,29.90
2018-07-17T14:10:51.431Z,30.03
2018-07-17T14:13:20.075Z,30.20
2018-07-17T14:15:48.940Z,30.67
2018-07-17T14:18:17.904Z,32.03
2018-07-17T14:20:46.544Z,34.05
2018-07-17T14:23:15.443Z,37.04
2018-07-17T14:25:44.130Z,38.38
2018-07-17T14:28:12.920Z,39.86
2018-07-17T14:30:42.070Z,42.24
2018-07-17T14:33:10.956Z,44.08
2018-07-17T14:35:39.647Z,45.84
2018-07-17T14:38:08.710Z,47.32
2018-07-17T14:40:37.230Z,48.67
2018-07-17T14:43:06.344Z,49.58
2018-07-17T14:45:35.218Z,50.35
2018-07-17T14:48:05.112Z,50.72
2018-07-17T14:50:33.702Z,50.48
2018-07-17T14:53:02.907Z,50.79
2018-07-17T14:55:31.438Z,51.36
2018-07-17T14:58:00.036Z,51.34
2018-07-17T15:00:28.940Z,50.77
2018-07-17T15:02:57.511Z,48.20
2018-07-17T15:05:26.105Z,46.37
2018-07-17T15:07:54.966Z,47.39
2018-07-17T15:10:23.631Z,47.53
2018-07-17T15:12:52.228Z,48.14
2018-07-17T15:15:21.097Z,47.89
2018-07-17T15:17:49.954Z,46.69
2018-07-17T15:20:18.652Z,47.23
2018-07-17T15:22:47.436Z,46.39
2018-07-17T15:25:16.057Z,47.35
2018-07-17T15:27:44.764Z,46.93
2018-07-17T15:30:13.724Z,47.08
2018-07-17T15:32:42.427Z,47.12
2018-07-17T15:35:17.483Z,46.57
2018-07-17T15:37:46.011Z,45.46
2018-07-17T15:40:14.867Z,45.30
2018-07-17T15:42:43.701Z,43.36
2018-07-17T15:45:12.320Z,41.88
2018-07-17T15:47:40.792Z,38.86
2018-07-17T15:50:11.994Z,37.83
2018-07-17T15:52:43.124Z,36.11
2018-07-17T15:55:11.774Z,34.21
2018-07-17T15:57:40.847Z,34.61
2018-07-17T16:00:09.614Z,34.32
2018-07-17T16:02:38.234Z,33.96
2018-07-17T16:05:07.090Z,33.37
2018-07-17T16:07:35.886Z,33.30
2018-07-17T16:10:05.620Z,32.82
2018-07-17T16:12:35.535Z,32.54
2018-07-17T16:15:04.352Z,32.19
2018-07-17T16:17:33.058Z,31.88
2018-07-17T16:20:02.998Z,31.60
2018-07-17T16:22:31.636Z,31.19
2018-07-17T16:25:00.447Z,31.18
2018-07-17T16:27:29.352Z,30.62
2018-07-17T16:29:57.980Z,30.37
2018-07-17T16:32:26.652Z,30.04
2018-07-17T16:34:55.576Z,30.12
2018-07-17T16:37:24.256Z,30.31
2018-07-17T16:39:52.792Z,30.33
2018-07-17T16:42:21.958Z,30.23
2018-07-17T16:44:50.890Z,30.30
2018-07-17T16:47:20.157Z,30.48
2018-07-17T16:49:49.033Z,31.05
2018-07-17T16:52:18.697Z,31.34
2018-07-17T16:54:47.963Z,31.48
2018-07-17T16:57:19.658Z,31.60
2018-07-17T16:59:49.111Z,31.76
2018-07-17T17:02:38.814Z,31.71
2018-07-17T17:05:07.977Z,31.97
2018-07-17T17:07:37.011Z,31.80
2018-07-17T17:10:06.481Z,31.95
2018-07-17T17:15:11.876Z,32.47
2018-07-17T17:17:41.026Z,32.78
2018-07-17T17:20:09.859Z,32.80
2018-07-17T17:22:38.557Z,32.52
2018-07-17T17:25:07.626Z,32.53
2018-07-17T17:27:36.312Z,32.75
2018-07-17T17:30:07.131Z,32.72
2018-07-17T17:32:36.211Z,32.58
2018-07-17T17:35:05.629Z,32.79
2018-07-17T17:37:34.476Z,32.83
2018-07-17T17:40:05.940Z,32.88
2018-07-17T17:42:34.688Z,32.50
2018-07-17T17:45:03.709Z,32.18
2018-07-17T17:47:51.738Z,31.86
2018-07-17T17:50:41.244Z,31.61
2018-07-17T17:53:10.180Z,31.30
2018-07-17T17:55:38.758Z,31.10
2018-07-17T17:58:07.648Z,31.00
2018-07-17T18:00:36.630Z,30.85
2018-07-17T18:03:05.491Z,30.66
2018-07-17T18:05:34.509Z,30.61
2018-07-17T18:08:05.089Z,30.52
2018-07-17T18:10:38.146Z,30.31
2018-07-17T18:13:12.482Z,30.19
2018-07-17T18:15:41.539Z,30.28
2018-07-17T18:18:10.450Z,30.45
2018-07-17T18:20:40.946Z,30.51
2018-07-17T18:26:03.972Z,30.61
2018-07-17T18:28:33.196Z,30.70
2018-07-17T18:31:01.820Z,30.71
2018-07-17T18:33:30.897Z,30.57
2018-07-17T18:35:59.711Z,30.56
2018-07-17T18:38:28.419Z,30.67
2018-07-17T18:40:57.244Z,30.65
2018-07-17T18:43:25.923Z,30.68
2018-07-17T18:45:54.481Z,30.49
2018-07-17T18:48:23.757Z,30.39
2018-07-17T18:50:52.415Z,30.31
2018-07-17T18:53:21.105Z,30.20
2018-07-17T18:55:50.073Z,30.14
2018-07-17T18:58:19.623Z,30.07
2018-07-17T19:00:48.291Z,29.96
2018-07-17T19:03:17.495Z,29.90
2018-07-17T19:05:46.161Z,29.82
2018-07-17T19:08:15.224Z,29.73
2018-07-17T19:10:45.000Z,29.64
2018-07-17T19:13:13.671Z,29.55
2018-07-17T19:15:42.484Z,29.43
2018-07-17T19:18:11.426Z,29.32
2018-07-17T19:20:40.043Z,29.16
2018-07-17T19:23:08.595Z,29.05
2018-07-17T19:25:37.996Z,28.99
2018-07-17T19:28:06.851Z,28.93
2018-07-17T19:30:36.291Z,28.84
2018-07-17T19:33:06.830Z,28.78
2018-07-17T19:35:35.790Z,28.73
2018-07-17T19:38:06.578Z,28.67
2018-07-17T19:40:35.140Z,28.60
2018-07-17T19:43:04.049Z,28.58
2018-07-17T19:45:32.616Z,28.58
2018-07-17T19:48:01.421Z,28.53
2018-07-17T19:50:30.193Z,28.50
2018-07-17T19:52:59.015Z,28.48
2018-07-17T19:55:27.733Z,28.42
2018-07-17T19:57:56.262Z,28.40
2018-07-17T20:00:24.952Z,28.35
2018-07-17T20:02:53.716Z,28.33
2018-07-17T20:05:22.305Z,28.32
2018-07-17T20:07:50.957Z,28.25
2018-07-17T20:10:19.801Z,28.24
2018-07-17T20:13:18.951Z,28.23
2018-07-17T20:15:47.926Z,28.16
2018-07-17T20:18:18.068Z,28.16
2018-07-17T20:20:46.731Z,28.10
2018-07-17T20:23:15.306Z,28.05
2018-07-17T20:25:44.647Z,28.05
2018-07-17T20:28:13.560Z,28.01
2018-07-17T20:30:42.303Z,28.00
2018-07-17T20:33:11.030Z,27.91
2018-07-17T20:35:39.694Z,27.90
2018-07-17T20:38:09.062Z,27.89
2018-07-17T20:40:38.186Z,27.82
2018-07-17T20:43:07.052Z,27.73
2018-07-17T20:45:35.696Z,27.75
2018-07-17T20:48:05.680Z,27.69
2018-07-17T20:50:34.865Z,27.64
2018-07-17T20:53:03.483Z,27.61
2018-07-17T20:55:32.177Z,27.61
2018-07-17T20:58:01.286Z,27.51
2018-07-17T21:00:30.138Z,27.47
2018-07-17T21:02:58.779Z,27.45
2018-07-17T21:05:27.461Z,27.41
2018-07-17T21:07:56.384Z,27.42
2018-07-17T21:10:25.068Z,27.43
2018-07-17T21:12:53.777Z,27.38
2018-07-17T21:15:23.822Z,27.34
2018-07-17T21:17:52.384Z,27.29
2018-07-17T21:20:21.102Z,27.30
2018-07-17T21:22:49.756Z,27.29
2018-07-17T21:25:19.008Z,27.24
2018-07-17T21:27:47.714Z,27.19
2018-07-17T21:30:16.643Z,27.12
2018-07-17T21:32:45.172Z,27.06
2018-07-17T21:35:16.814Z,27.03
2018-07-17T21:37:45.478Z,26.99
2018-07-17T21:40:14.295Z,26.96
2018-07-17T21:42:44.223Z,26.85
2018-07-17T21:45:12.920Z,26.81
2018-07-17T21:47:41.877Z,26.74
2018-07-17T21:50:10.963Z,26.72
2018-07-17T21:52:40.101Z,26.68
2018-07-17T21:55:09.110Z,26.64
2018-07-17T21:57:37.729Z,26.60
2018-07-17T22:00:08.973Z,26.57
2018-07-17T22:02:37.660Z,26.52
2018-07-17T22:05:07.262Z,26.49
2018-07-17T22:07:36.167Z,26.48
2018-07-17T22:10:05.683Z,26.45
2018-07-17T22:12:34.251Z,26.40
2018-07-17T22:15:03.971Z,26.36
2018-07-17T22:17:32.539Z,26.34
2018-07-17T22:20:01.203Z,26.31
2018-07-17T22:22:29.775Z,26.28
2018-07-17T22:24:58.283Z,26.23
2018-07-17T22:27:26.899Z,26.19
2018-07-17T22:29:55.507Z,26.18
2018-07-17T22:32:24.071Z,26.15
2018-07-17T22:34:52.572Z,26.11
2018-07-17T22:37:21.485Z,26.06
2018-07-17T22:39:55.480Z,26.01
2018-07-17T22:42:24.551Z,25.98
2018-07-17T22:44:53.110Z,25.92
2018-07-17T22:47:22.614Z,25.85
2018-07-17T22:49:51.501Z,25.82
2018-07-17T22:52:20.449Z,25.78
2018-07-17T22:54:48.908Z,25.75
2018-07-17T22:57:17.373Z,25.73
2018-07-17T22:59:46.815Z,25.72
2018-07-17T23:02:15.560Z,25.67
2018-07-17T23:04:44.044Z,25.64
2018-07-17T23:07:12.674Z,25.63
2018-07-17T23:09:41.314Z,25.64
2018-07-17T23:12:10.639Z,25.61
2018-07-17T23:14:39.189Z,25.56
2018-07-17T23:17:07.750Z,25.52
2018-07-17T23:19:37.005Z,25.49
2018-07-17T23:22:06.804Z,25.50
2018-07-17T23:24:35.276Z,25.52
2018-07-17T23:27:04.408Z,25.51
2018-07-17T23:29:33.398Z,25.48
2018-07-17T23:32:01.923Z,25.45
2018-07-17T23:34:30.399Z,25.42
2018-07-17T23:36:58.925Z,25.39
2018-07-17T23:39:27.890Z,25.38
2018-07-17T23:41:56.897Z,25.36
2018-07-17T23:44:25.394Z,25.34
2018-07-17T23:46:53.896Z,25.32
2018-07-17T23:49:27.933Z,25.33
2018-07-17T23:51:56.439Z,25.31
2018-07-17T23:54:24.917Z,25.32
2018-07-17T23:56:53.407Z,25.31
2018-07-17T23:59:22.073Z,25.31
